Portada
METAR-TAF:

METAR-TAF

Aeroports :

Culiacán, Mèxic

latitud: 24-49N, longitud: 107-24W, altitud: 39 m

Observació

L'informe es va fer fa 1 hora i 24 minuts, a les 15:41 UTC
Vent 6 kt del Sud/Sud-Est
Temperatura 28°C
Humitat 51%
Pressió 1015 hPa
Visibilitat: 16.1 km
Cel cobert a una alçada de 23000 ft

METAR: MMCL 171541Z 15006KT 10SM OVC230 28/17 A2997 RMK 8/007 BINOVC HZY

Hora: 11:05 (17:05 UTC)

Pronòstic

L'informe es va fer fa 13 hores i 7 minuts, a les 03:58 UTC
Pronòstic vàlid del 17 a les 06 UTC al 18 a les 06 UTC
Vent 5 kt del Sud
Visibilitat: 10 km
Núvols disperses a una alçada de 25000 ft
A partir de les 17 a les 1800 UTC
Vent 10 kt del Sud-Oest
Visibilitat: 10 km
Cel ennuvolat a una alçada de 25000 ft
A partir de les 18 a les 0300 UTC
Vent 5 kt del Sud/Sud-Oest
Visibilitat: 10 km
Núvols disperses a una alçada de 25000 ft

TAF: MMCL 170358Z 1706/1806 18005KT P6SM SCT250 FM171800 22010KT P6SM BKN250 FM180300 20005KT P6SM SCT250

Observacions i pronòstics meteorològics de més de 4000 aeroports (METAR i TAF).

Les estacions disponibles són els punts grocs i vermells al mapa.

Posi el ratolí al punt desitjat per veure el nom de l'estació.

Feu clic per veure les observacions i els pronòstics meteorològics.

Per canviar el mapa: feu clic els botons verds amb una creu de color negre per apropar; al botó verd amb un guió per allunyar la imatge; o en les fletxes verdes per a mapes adjacents.


METAR-TAF: